Terminal Aerodrome Forecast
Issued by NWS

Home | Current Version | Previous Version | Text Only | Print | Product List | Glossary On
Versions: 1 2 3 4 5 6 7 8 9 10 11 12 13 14 15 16 17 18 19 20 21 22 23 24 25 26 27
000
FTUS43 KDVN 230300 AAB
TAFBRL
TAF AMD
KBRL 230326Z 2303/2324 18014G20KT P6SM SCT120
     FM230700 18012KT P6SM SCT025 BKN100
     FM231200 16009KT 4SM BR OVC015
     FM231600 16009KT 1SM -RA BR OVC004=

USA.gov is the U.S. government's official web portal to all federal, state and local government web resources and services.